Terminal Aerodrome Forecast
Issued by NWS

Home | Current Version | Previous Version | Text Only | Print | Product List | Glossary On
Versions: 1 2 3 4 5 6 7 8 9 10 11 12 13 14 15
000
FTUS45 KPSR 212331
TAFIWA
TAF
KIWA 212331Z 2200/2224 29005KT P6SM BKN250
     FM220400 08007KT P6SM SCT250
      TEMPO 2216/2220 10010G18KT
      AMD LTD TO CLD VIS AND WIND 2203/2213=

USA.gov is the U.S. government's official web portal to all federal, state and local government web resources and services.